createdAt,value
2023-07-03T00:00:13.491Z,21.80
2023-07-03T00:02:41.318Z,21.60
2023-07-03T00:05:10.246Z,21.40
2023-07-03T00:07:38.358Z,21.30
2023-07-03T00:10:06.189Z,21.20
2023-07-03T00:12:33.250Z,21.20
2023-07-03T00:15:00.270Z,21.10
2023-07-03T00:17:27.309Z,21.10
2023-07-03T00:19:54.251Z,21.20
2023-07-03T00:22:22.341Z,21.20
2023-07-03T00:24:49.352Z,21.50
2023-07-03T00:27:16.420Z,21.50
2023-07-03T00:29:43.304Z,21.50
2023-07-03T00:32:10.733Z,21.70
2023-07-03T00:34:37.660Z,21.70
2023-07-03T00:37:04.831Z,21.50
2023-07-03T00:39:31.732Z,21.50
2023-07-03T00:41:59.642Z,21.30
2023-07-03T00:44:26.590Z,21.40
2023-07-03T00:46:53.647Z,21.20
2023-07-03T00:49:21.837Z,21.20
2023-07-03T00:51:54.792Z,21.20
2023-07-03T00:54:21.990Z,21.10
2023-07-03T00:56:48.939Z,21.00
2023-07-03T00:59:17.464Z,21.00
2023-07-03T01:02:05.098Z,21.10
2023-07-03T01:04:38.088Z,21.00
2023-07-03T01:07:13.295Z,21.40
2023-07-03T01:09:47.545Z,21.70
2023-07-03T01:12:15.097Z,21.50
2023-07-03T01:14:44.850Z,21.40
2023-07-03T01:17:14.489Z,21.30
2023-07-03T01:19:46.436Z,21.40
2023-07-03T01:22:38.051Z,21.40
2023-07-03T01:25:11.916Z,21.30
2023-07-03T01:27:42.840Z,21.10
2023-07-03T01:30:14.649Z,20.90
2023-07-03T01:32:44.021Z,20.90
2023-07-03T01:35:12.903Z,21.00
2023-07-03T01:37:48.018Z,21.00
2023-07-03T01:40:17.940Z,21.00
2023-07-03T01:42:47.119Z,21.30
2023-07-03T01:45:14.833Z,21.20
2023-07-03T01:47:41.835Z,20.90
2023-07-03T01:50:15.600Z,20.70
2023-07-03T01:53:00.643Z,20.50
2023-07-03T01:55:40.684Z,20.40
2023-07-03T01:58:13.679Z,20.30
2023-07-03T02:00:57.925Z,20.30
2023-07-03T02:03:32.563Z,20.20
2023-07-03T02:06:06.734Z,20.20
2023-07-03T02:08:33.933Z,20.10
2023-07-03T02:11:00.850Z,20.00
2023-07-03T02:13:27.791Z,20.00
2023-07-03T02:15:54.709Z,20.00
2023-07-03T02:18:24.453Z,19.90
2023-07-03T02:20:52.689Z,19.90
2023-07-03T02:23:19.692Z,19.80
2023-07-03T02:25:46.733Z,19.80
2023-07-03T02:28:14.265Z,19.80
2023-07-03T02:30:41.264Z,19.80
2023-07-03T02:33:08.184Z,19.80
2023-07-03T02:35:36.881Z,19.80
2023-07-03T02:38:03.881Z,19.80
2023-07-03T02:40:30.801Z,19.80
2023-07-03T02:42:58.533Z,19.70
2023-07-03T02:45:25.481Z,19.60
2023-07-03T02:47:52.453Z,19.60
2023-07-03T02:50:19.439Z,19.50
2023-07-03T02:52:46.368Z,19.50
2023-07-03T02:55:13.692Z,19.50
2023-07-03T02:57:40.640Z,19.40
2023-07-03T03:00:08.445Z,19.30
2023-07-03T03:02:35.522Z,19.30
2023-07-03T03:05:02.586Z,19.30
2023-07-03T03:07:29.512Z,19.30
2023-07-03T03:09:56.417Z,19.30
2023-07-03T03:12:23.464Z,19.20
2023-07-03T03:14:50.456Z,19.20
2023-07-03T03:17:17.354Z,19.10
2023-07-03T03:19:44.736Z,19.10
2023-07-03T03:22:11.642Z,19.10
2023-07-03T03:24:38.587Z,19.00
2023-07-03T03:27:07.877Z,19.20
2023-07-03T03:29:36.039Z,19.40
2023-07-03T03:32:04.523Z,19.60
2023-07-03T03:34:33.861Z,19.80
2023-07-03T03:37:01.004Z,19.90
2023-07-03T03:39:28.070Z,20.00
2023-07-03T03:41:55.002Z,20.10
2023-07-03T03:44:21.929Z,20.30
2023-07-03T03:46:48.816Z,20.60
2023-07-03T03:49:16.128Z,20.90
2023-07-03T03:51:43.068Z,21.10
2023-07-03T03:54:11.788Z,21.20
2023-07-03T03:56:38.666Z,21.20
2023-07-03T03:59:05.580Z,21.30
2023-07-03T04:01:34.343Z,21.50
2023-07-03T04:04:01.855Z,21.70
2023-07-03T04:06:29.295Z,22.00
2023-07-03T04:08:59.976Z,22.10
2023-07-03T04:11:29.377Z,22.20
2023-07-03T04:13:56.335Z,22.50
2023-07-03T04:16:25.265Z,23.10
2023-07-03T04:18:52.194Z,23.40
2023-07-03T04:21:19.516Z,23.80
2023-07-03T04:23:46.585Z,24.00
2023-07-03T04:26:13.524Z,24.00
2023-07-03T04:28:40.438Z,24.10
2023-07-03T04:31:07.515Z,24.30
2023-07-03T04:33:34.859Z,24.50
2023-07-03T04:36:02.033Z,24.80
2023-07-03T04:38:29.158Z,24.90
2023-07-03T04:40:56.260Z,25.30
2023-07-03T04:43:23.667Z,25.60
2023-07-03T04:45:54.072Z,26.00
2023-07-03T04:48:22.019Z,26.40
2023-07-03T04:50:50.439Z,26.50
2023-07-03T04:53:22.537Z,26.70
2023-07-03T04:55:50.945Z,26.70
2023-07-03T04:58:18.322Z,26.80
2023-07-03T05:00:45.244Z,26.70
2023-07-03T05:03:12.390Z,26.90
2023-07-03T05:05:39.451Z,27.10
2023-07-03T05:08:06.497Z,27.50
2023-07-03T05:10:33.958Z,27.70
2023-07-03T05:13:00.890Z,28.00
2023-07-03T05:15:30.854Z,28.20
2023-07-03T05:17:57.980Z,28.00
2023-07-03T05:20:27.078Z,27.90
2023-07-03T05:22:54.738Z,27.70
2023-07-03T05:25:21.669Z,27.80
2023-07-03T05:27:49.520Z,28.00
2023-07-03T05:30:16.792Z,28.40
2023-07-03T05:32:43.829Z,28.60
2023-07-03T05:35:11.458Z,28.80
2023-07-03T05:37:38.525Z,28.80
2023-07-03T05:40:08.325Z,29.10
2023-07-03T05:42:36.934Z,29.20
2023-07-03T05:45:05.504Z,29.10
2023-07-03T05:47:32.932Z,29.50
2023-07-03T05:49:59.997Z,29.80
2023-07-03T05:52:27.034Z,30.10
2023-07-03T05:54:54.136Z,30.40
2023-07-03T05:57:21.938Z,30.70
2023-07-03T05:59:49.871Z,31.10
2023-07-03T06:02:17.687Z,31.30
2023-07-03T06:04:44.863Z,31.40
2023-07-03T06:07:11.850Z,31.80
2023-07-03T06:09:38.955Z,31.90
2023-07-03T06:12:07.055Z,32.10
2023-07-03T06:14:35.257Z,32.30
2023-07-03T06:17:02.576Z,32.10
2023-07-03T06:19:30.274Z,32.20
2023-07-03T06:21:57.728Z,32.50
2023-07-03T06:24:25.390Z,32.70
2023-07-03T06:26:53.058Z,32.60
2023-07-03T06:29:20.035Z,32.80
2023-07-03T06:31:47.186Z,33.10
2023-07-03T06:34:14.087Z,33.10
2023-07-03T06:36:41.259Z,32.80
2023-07-03T06:39:10.387Z,33.00
2023-07-03T06:41:37.468Z,33.20
2023-07-03T06:44:05.910Z,33.50
2023-07-03T06:46:33.046Z,33.80
2023-07-03T06:49:00.283Z,33.90
2023-07-03T06:51:27.359Z,34.20
2023-07-03T06:53:54.563Z,34.30
2023-07-03T06:56:22.163Z,34.30
2023-07-03T06:58:50.551Z,34.20
2023-07-03T07:01:21.095Z,34.30
2023-07-03T07:03:48.177Z,34.20
2023-07-03T07:06:18.077Z,33.90
2023-07-03T07:08:45.939Z,33.50
2023-07-03T07:11:18.908Z,33.80
2023-07-03T07:13:48.191Z,34.20
2023-07-03T07:16:24.721Z,34.60
2023-07-03T07:18:54.731Z,34.60
2023-07-03T07:21:22.551Z,34.80
2023-07-03T07:23:57.270Z,34.70
2023-07-03T07:26:28.462Z,34.70
2023-07-03T07:28:56.059Z,34.90
2023-07-03T07:31:25.625Z,35.10
2023-07-03T07:33:52.900Z,35.20
2023-07-03T07:36:22.511Z,35.20
2023-07-03T07:38:56.274Z,35.30
2023-07-03T07:41:26.643Z,35.20
2023-07-03T07:43:54.877Z,35.10
2023-07-03T07:46:26.665Z,35.00
2023-07-03T07:48:53.632Z,35.00
2023-07-03T07:51:20.660Z,34.70
2023-07-03T07:53:47.709Z,34.30
2023-07-03T07:56:14.895Z,34.60
2023-07-03T07:58:41.870Z,34.90
2023-07-03T08:01:11.818Z,35.00
2023-07-03T08:03:40.469Z,35.00
2023-07-03T08:06:07.556Z,34.80
2023-07-03T08:08:34.502Z,34.90
2023-07-03T08:11:03.041Z,35.10
2023-07-03T08:13:31.653Z,35.10
2023-07-03T08:15:59.205Z,34.60
2023-07-03T08:18:27.157Z,34.40
2023-07-03T08:20:54.564Z,34.50
2023-07-03T08:23:22.362Z,34.50
2023-07-03T08:25:51.749Z,34.60
2023-07-03T08:28:19.250Z,34.60
2023-07-03T08:30:46.305Z,34.70
2023-07-03T08:33:15.304Z,34.80
2023-07-03T08:38:12.851Z,35.40
2023-07-03T08:40:40.126Z,35.60
2023-07-03T08:43:12.219Z,35.30
2023-07-03T08:45:43.534Z,35.20
2023-07-03T08:48:18.126Z,34.90
2023-07-03T08:50:54.170Z,34.80
2023-07-03T08:53:27.345Z,34.90
2023-07-03T08:55:57.074Z,35.20
2023-07-03T08:58:24.232Z,35.40
2023-07-03T09:01:09.999Z,35.60
2023-07-03T09:03:52.521Z,35.80
2023-07-03T09:07:06.618Z,36.00
2023-07-03T09:09:48.910Z,35.80
2023-07-03T09:12:42.274Z,35.40
2023-07-03T09:15:33.024Z,35.30
2023-07-03T09:18:02.581Z,35.00
2023-07-03T09:20:32.007Z,35.00
2023-07-03T09:23:18.457Z,34.40
2023-07-03T09:25:58.344Z,34.50
2023-07-03T09:28:29.117Z,34.80
2023-07-03T09:30:56.069Z,34.90
2023-07-03T09:33:26.081Z,35.00
2023-07-03T09:35:53.671Z,34.60
2023-07-03T09:38:25.712Z,34.50
2023-07-03T09:40:58.516Z,34.90
2023-07-03T09:43:29.393Z,35.00
2023-07-03T09:46:11.179Z,35.20
2023-07-03T09:48:38.586Z,35.00
2023-07-03T09:51:08.856Z,35.20
2023-07-03T09:53:40.077Z,35.40
2023-07-03T09:56:14.274Z,35.30
2023-07-03T09:58:49.285Z,34.90
2023-07-03T10:06:51.660Z,34.50
2023-07-03T10:12:14.372Z,34.20
2023-07-03T10:15:07.967Z,34.00
2023-07-03T10:17:41.943Z,33.90
2023-07-03T10:20:26.396Z,33.90
2023-07-03T10:22:58.079Z,34.00
2023-07-03T10:25:29.884Z,33.70
2023-07-03T10:28:00.104Z,33.50
2023-07-03T10:30:33.250Z,33.40
2023-07-03T10:33:05.168Z,33.10
2023-07-03T10:35:35.251Z,33.00
2023-07-03T10:38:13.910Z,33.20
2023-07-03T10:41:15.952Z,33.00
2023-07-03T10:44:15.734Z,32.90
2023-07-03T10:46:48.974Z,32.90
2023-07-03T10:49:25.691Z,32.90
2023-07-03T10:52:20.787Z,32.50
2023-07-03T10:55:03.833Z,32.10
2023-07-03T10:57:49.117Z,32.10
2023-07-03T11:00:25.605Z,31.80
2023-07-03T11:03:19.973Z,31.50
2023-07-03T11:06:04.343Z,31.20
2023-07-03T11:08:51.110Z,30.90
2023-07-03T11:11:55.647Z,30.60
2023-07-03T11:14:37.209Z,31.20
2023-07-03T11:17:13.052Z,31.70
2023-07-03T11:20:05.706Z,32.00
2023-07-03T11:22:49.956Z,31.90
2023-07-03T11:28:33.647Z,31.90
2023-07-03T11:31:02.987Z,31.80
2023-07-03T11:36:03.709Z,32.00
2023-07-03T11:41:00.754Z,32.20
2023-07-03T11:43:31.218Z,32.20
2023-07-03T11:45:58.093Z,32.10
2023-07-03T11:48:39.068Z,32.20
2023-07-03T11:51:09.346Z,32.20
2023-07-03T11:53:57.488Z,32.20
2023-07-03T11:56:45.297Z,31.90
2023-07-03T11:59:26.466Z,31.50
2023-07-03T12:01:55.408Z,31.50
2023-07-03T12:04:47.837Z,31.70
2023-07-03T12:07:23.091Z,31.80
2023-07-03T12:09:51.647Z,31.70
2023-07-03T12:12:21.140Z,31.70
2023-07-03T12:15:01.797Z,31.70
2023-07-03T12:17:37.301Z,31.80
2023-07-03T12:20:20.870Z,31.70
2023-07-03T12:22:50.496Z,31.60
2023-07-03T12:25:29.884Z,31.50
2023-07-03T12:28:11.098Z,31.40
2023-07-03T12:30:39.243Z,31.40
2023-07-03T12:33:07.691Z,31.40
2023-07-03T12:35:37.516Z,31.30
2023-07-03T12:38:09.622Z,31.30
2023-07-03T12:40:47.434Z,31.30
2023-07-03T12:43:19.521Z,31.30
2023-07-03T12:45:54.769Z,31.40
2023-07-03T12:48:23.809Z,31.20
2023-07-03T12:50:58.715Z,31.20
2023-07-03T12:53:33.750Z,31.20
2023-07-03T12:56:05.031Z,31.20
2023-07-03T12:58:32.543Z,31.00
2023-07-03T13:01:08.362Z,31.00
2023-07-03T13:03:44.796Z,30.90
2023-07-03T13:06:29.208Z,30.80
2023-07-03T13:08:57.794Z,30.80
2023-07-03T13:11:39.519Z,30.60
2023-07-03T13:14:11.261Z,30.60
2023-07-03T13:16:38.575Z,30.70
2023-07-03T13:19:05.736Z,30.70
2023-07-03T13:21:36.062Z,30.60
2023-07-03T13:24:16.314Z,30.60
2023-07-03T13:26:51.098Z,30.50
2023-07-03T13:29:28.234Z,30.40
2023-07-03T13:32:17.115Z,30.40
2023-07-03T13:35:06.117Z,30.30
2023-07-03T13:37:37.167Z,30.30
2023-07-03T13:40:05.222Z,30.30
2023-07-03T13:42:32.537Z,30.20
2023-07-03T13:44:59.633Z,30.00
2023-07-03T13:47:28.587Z,29.90
2023-07-03T13:49:56.494Z,29.90
2023-07-03T13:52:23.403Z,29.80
2023-07-03T13:54:50.387Z,29.70
2023-07-03T13:57:17.321Z,29.60
2023-07-03T13:59:44.291Z,29.60
2023-07-03T14:02:11.259Z,29.50
2023-07-03T14:04:38.418Z,29.50
2023-07-03T14:07:05.618Z,29.40
2023-07-03T14:09:32.537Z,29.40
2023-07-03T14:11:59.443Z,29.40
2023-07-03T14:14:26.317Z,29.40
2023-07-03T14:16:53.719Z,29.40
2023-07-03T14:19:20.797Z,29.40
2023-07-03T14:21:47.846Z,29.30
2023-07-03T14:24:14.826Z,29.40
2023-07-03T14:26:42.245Z,29.40
2023-07-03T14:29:09.280Z,29.50
2023-07-03T14:31:36.712Z,29.50
2023-07-03T14:34:03.835Z,29.50
2023-07-03T14:36:30.793Z,29.50
2023-07-03T14:38:57.915Z,29.40
2023-07-03T14:41:25.033Z,29.40
2023-07-03T14:43:52.105Z,29.50
2023-07-03T14:46:19.073Z,29.50
2023-07-03T14:48:46.136Z,29.60
2023-07-03T14:51:13.162Z,29.50
2023-07-03T14:53:40.071Z,29.40
2023-07-03T14:56:07.810Z,29.40
2023-07-03T14:58:34.835Z,29.40
2023-07-03T15:01:03.886Z,29.40
2023-07-03T15:03:31.733Z,29.50
2023-07-03T15:05:59.360Z,29.50
2023-07-03T15:08:27.285Z,29.50
2023-07-03T15:10:54.362Z,29.60
2023-07-03T15:13:21.461Z,29.60
2023-07-03T15:15:50.361Z,29.60
2023-07-03T15:18:17.845Z,29.50
2023-07-03T15:20:47.170Z,29.40
2023-07-03T15:23:16.238Z,29.40
2023-07-03T15:25:43.438Z,29.30
2023-07-03T15:28:10.469Z,29.40
2023-07-03T15:30:41.372Z,29.40
2023-07-03T15:33:08.714Z,29.30
2023-07-03T15:35:36.207Z,29.30
2023-07-03T15:38:03.216Z,29.40
2023-07-03T15:40:30.104Z,29.40
2023-07-03T15:42:57.077Z,29.40
2023-07-03T15:45:24.388Z,29.30
2023-07-03T15:47:51.454Z,29.30
2023-07-03T15:50:18.444Z,29.30
2023-07-03T15:52:45.446Z,29.30
2023-07-03T15:55:12.337Z,29.30
2023-07-03T15:57:39.264Z,29.20
2023-07-03T16:00:06.947Z,29.20
2023-07-03T16:02:33.965Z,29.10
2023-07-03T16:05:00.980Z,29.10
2023-07-03T16:07:28.540Z,29.10
2023-07-03T16:09:55.509Z,29.10
2023-07-03T16:12:22.456Z,29.10
2023-07-03T16:14:49.481Z,29.00
2023-07-03T16:17:16.631Z,29.00
2023-07-03T16:20:04.082Z,28.90
2023-07-03T16:22:31.076Z,28.90
2023-07-03T16:24:57.955Z,28.80
2023-07-03T16:27:24.899Z,28.80
2023-07-03T16:29:51.740Z,28.70
2023-07-03T16:32:18.999Z,28.70
2023-07-03T16:34:47.473Z,28.70
2023-07-03T16:37:14.463Z,28.70
2023-07-03T16:39:41.426Z,28.70
2023-07-03T16:42:08.428Z,28.70
2023-07-03T16:44:35.370Z,28.70
2023-07-03T16:47:02.443Z,28.60
2023-07-03T16:49:29.499Z,28.60
2023-07-03T16:51:56.589Z,28.50
2023-07-03T16:54:24.597Z,28.40
2023-07-03T16:56:53.436Z,28.40
2023-07-03T16:59:20.622Z,28.30
2023-07-03T17:01:48.804Z,28.30
2023-07-03T17:04:15.971Z,28.30
2023-07-03T17:06:43.281Z,28.20
2023-07-03T17:09:10.559Z,28.10
2023-07-03T17:11:37.861Z,28.00
2023-07-03T17:14:05.599Z,27.90
2023-07-03T17:16:33.788Z,27.80
2023-07-03T17:19:00.959Z,27.80
2023-07-03T17:21:28.971Z,27.80
2023-07-03T17:24:01.638Z,27.80
2023-07-03T17:26:30.195Z,27.70
2023-07-03T17:28:57.413Z,27.70
2023-07-03T17:31:25.440Z,27.60
2023-07-03T17:33:56.431Z,27.60
2023-07-03T17:36:24.590Z,27.50
2023-07-03T17:38:52.743Z,27.40
2023-07-03T17:41:20.782Z,27.50
2023-07-03T17:43:48.441Z,27.50
2023-07-03T17:46:17.169Z,27.60
2023-07-03T17:48:44.836Z,27.20
2023-07-03T17:51:12.627Z,27.50
2023-07-03T17:53:41.645Z,27.40
2023-07-03T17:56:09.211Z,27.30
2023-07-03T17:58:36.716Z,27.30
2023-07-03T18:01:04.580Z,27.20
2023-07-03T18:03:33.888Z,27.30
2023-07-03T18:06:01.624Z,27.30
2023-07-03T18:08:28.650Z,27.20
2023-07-03T18:10:56.067Z,27.00
2023-07-03T18:13:23.668Z,26.90
2023-07-03T18:15:50.981Z,26.80
2023-07-03T18:18:21.025Z,26.80
2023-07-03T18:20:48.602Z,26.70
2023-07-03T18:23:15.847Z,26.70
2023-07-03T18:25:46.661Z,26.60
2023-07-03T18:28:13.927Z,26.50
2023-07-03T18:30:41.384Z,26.30
2023-07-03T18:33:08.902Z,26.20
2023-07-03T18:35:37.466Z,26.10
2023-07-03T18:38:05.471Z,26.00
2023-07-03T18:40:33.208Z,25.90
2023-07-03T18:43:00.428Z,25.80
2023-07-03T18:45:27.556Z,25.70
2023-07-03T18:47:55.244Z,25.60
2023-07-03T18:50:22.595Z,25.50
2023-07-03T18:52:50.032Z,25.50
2023-07-03T18:55:17.472Z,25.40
2023-07-03T18:57:47.153Z,25.30
2023-07-03T19:00:16.239Z,25.20
2023-07-03T19:02:46.709Z,25.10
2023-07-03T19:05:14.533Z,25.00
2023-07-03T19:07:41.768Z,25.00
2023-07-03T19:10:18.440Z,25.00
2023-07-03T19:12:47.337Z,25.00
2023-07-03T19:15:15.655Z,24.90
2023-07-03T19:17:42.896Z,24.80
2023-07-03T19:20:12.305Z,24.70
2023-07-03T19:22:41.714Z,24.50
2023-07-03T19:25:09.465Z,24.50
2023-07-03T19:27:36.388Z,24.40
2023-07-03T19:30:04.167Z,24.40
2023-07-03T19:32:31.687Z,24.40
2023-07-03T19:34:59.138Z,24.40
2023-07-03T19:37:26.770Z,24.40
2023-07-03T19:39:54.024Z,24.50
2023-07-03T19:42:21.239Z,24.50
2023-07-03T19:44:48.701Z,24.50
2023-07-03T19:47:16.166Z,24.50
2023-07-03T19:49:44.300Z,24.50
2023-07-03T19:52:12.300Z,24.50
2023-07-03T19:54:39.984Z,24.60
2023-07-03T19:57:06.956Z,24.60
2023-07-03T19:59:34.205Z,24.60
2023-07-03T20:02:01.783Z,24.60
2023-07-03T20:04:30.534Z,24.60
2023-07-03T20:06:59.001Z,24.60
2023-07-03T20:09:26.696Z,24.50
2023-07-03T20:11:53.917Z,24.50
2023-07-03T20:14:22.843Z,24.50
2023-07-03T20:16:50.149Z,24.40
2023-07-03T20:19:17.638Z,24.30
2023-07-03T20:21:44.868Z,24.20
2023-07-03T20:24:12.981Z,24.20
2023-07-03T20:26:40.756Z,24.10
2023-07-03T20:29:07.689Z,24.10
2023-07-03T20:31:35.126Z,24.00
2023-07-03T20:34:02.369Z,23.90
2023-07-03T20:36:30.491Z,23.70
2023-07-03T20:38:58.182Z,23.70
2023-07-03T20:41:25.806Z,23.60
2023-07-03T20:43:53.205Z,23.60
2023-07-03T20:46:22.514Z,23.60
2023-07-03T20:48:55.607Z,23.50
2023-07-03T20:51:24.164Z,23.40
2023-07-03T20:53:53.239Z,23.40
2023-07-03T20:56:22.980Z,23.40
2023-07-03T20:58:58.781Z,23.40
2023-07-03T21:01:34.294Z,23.30
2023-07-03T21:04:04.424Z,23.30
2023-07-03T21:06:34.928Z,23.30
2023-07-03T21:09:02.496Z,23.30
2023-07-03T21:11:31.260Z,23.30
2023-07-03T21:14:06.355Z,23.30
2023-07-03T21:16:34.951Z,23.30
2023-07-03T21:19:02.657Z,23.20
2023-07-03T21:21:32.384Z,23.20
2023-07-03T21:24:01.800Z,23.20
2023-07-03T21:26:28.804Z,23.10
2023-07-03T21:28:56.073Z,23.20
2023-07-03T21:31:35.646Z,23.30
2023-07-03T21:34:03.351Z,23.30
2023-07-03T21:36:32.399Z,23.30
2023-07-03T21:39:01.607Z,23.30
2023-07-03T21:41:30.827Z,23.20
2023-07-03T21:44:00.459Z,23.20
2023-07-03T21:46:29.053Z,23.10
2023-07-03T21:48:57.277Z,23.10
2023-07-03T21:51:27.236Z,23.00
2023-07-03T21:53:57.907Z,23.00
2023-07-03T21:56:31.052Z,23.00
2023-07-03T21:59:00.265Z,23.00
2023-07-03T22:01:31.862Z,23.00
2023-07-03T22:03:59.914Z,23.00
2023-07-03T22:06:27.638Z,22.90
2023-07-03T22:08:56.023Z,22.90
2023-07-03T22:11:24.594Z,22.90
2023-07-03T22:13:52.034Z,22.90
2023-07-03T22:16:19.825Z,22.90
2023-07-03T22:18:47.305Z,22.90
2023-07-03T22:21:15.739Z,23.00
2023-07-03T22:23:44.862Z,23.00
2023-07-03T22:26:12.216Z,23.00
2023-07-03T22:28:39.133Z,23.10
2023-07-03T22:31:06.157Z,23.10
2023-07-03T22:33:33.301Z,23.20
2023-07-03T22:36:00.245Z,23.20
2023-07-03T22:38:27.865Z,23.20
2023-07-03T22:40:54.866Z,23.20
2023-07-03T22:43:21.922Z,23.20
2023-07-03T22:45:49.997Z,23.10
2023-07-03T22:48:17.184Z,23.20
2023-07-03T22:50:44.613Z,23.10
2023-07-03T22:53:11.905Z,23.10
2023-07-03T22:55:42.581Z,23.10
2023-07-03T22:58:10.854Z,23.10
2023-07-03T23:00:41.406Z,23.00
2023-07-03T23:03:10.021Z,23.00
2023-07-03T23:05:47.882Z,23.00
2023-07-03T23:08:16.009Z,22.90
2023-07-03T23:10:54.152Z,23.00
2023-07-03T23:13:23.379Z,23.00
2023-07-03T23:16:02.170Z,22.90
2023-07-03T23:18:32.300Z,22.90
2023-07-03T23:21:01.750Z,22.90
2023-07-03T23:23:32.323Z,23.00
2023-07-03T23:26:12.223Z,23.00
2023-07-03T23:28:40.914Z,23.00
2023-07-03T23:31:11.632Z,23.00
2023-07-03T23:33:41.838Z,23.00
2023-07-03T23:36:11.628Z,23.00
2023-07-03T23:38:40.410Z,23.00
2023-07-03T23:41:09.538Z,23.10
2023-07-03T23:43:38.172Z,23.10
2023-07-03T23:46:10.243Z,23.00
2023-07-03T23:48:39.196Z,23.00
2023-07-03T23:51:08.744Z,23.00
2023-07-03T23:53:37.441Z,23.00
2023-07-03T23:56:07.150Z,23.00
2023-07-03T23:58:36.941Z,23.00
